Time;durP1;ratioP1;P1;durP2;ratioP2;P2;SDS_P1;SDS_P2;PMS_P1;PMS_P2;Temp;Humidity;BMP_temperature;BMP_pressure;BME280_temperature;BME280_humidity;BME280_pressure;Samples;Min_cycle;Max_cycle;Signal;HPM_P1;HPM_P2
2023/03/04 00:01:44;;;;;;;0.20;0.20;;;6.60;99.90;;;;;;5089164;28;20217;-86
2023/03/04 00:04:10;;;;;;;0.20;0.20;;;6.60;99.90;;;;;;5054856;28;20212;-85
2023/03/04 00:06:36;;;;;;;0.27;0.27;;;6.60;99.90;;;;;;5055557;28;20304;-85
2023/03/04 00:09:03;;;;;;;0.20;0.20;;;6.60;99.90;;;;;;5073745;28;20221;-85
2023/03/04 00:11:30;;;;;;;0.20;0.20;;;6.60;99.90;;;;;;5073794;28;20369;-86
2023/03/04 00:13:56;;;;;;;0.70;0.70;;;6.50;99.90;;;;;;5073908;28;20224;-84
2023/03/04 00:16:26;;;;;;;6.30;5.47;;;6.60;99.90;;;;;;5057075;28;20701;-85
2023/03/04 00:18:52;;;;;;;6.80;1.30;;;6.60;99.90;;;;;;5091788;28;20216;-85
2023/03/04 00:21:18;;;;;;;0.20;0.20;;;6.60;99.90;;;;;;5092104;28;20248;-85
2023/03/04 00:23:44;;;;;;;0.40;0.40;;;6.60;99.90;;;;;;5057489;28;20288;-85
2023/03/04 00:26:09;;;;;;;0.30;0.30;;;6.50;99.90;;;;;;5092800;28;20195;-85
2023/03/04 00:28:35;;;;;;;0.23;0.23;;;6.50;99.90;;;;;;5092037;28;20337;-85
2023/03/04 00:31:01;;;;;;;1.13;0.50;;;6.50;99.90;;;;;;5074002;28;20226;-85
2023/03/04 00:33:27;;;;;;;0.20;0.20;;;6.40;99.90;;;;;;5057365;28;20216;-85
2023/03/04 00:35:53;;;;;;;0.40;0.40;;;6.40;99.90;;;;;;5057333;28;20211;-85
2023/03/04 00:38:18;;;;;;;2.97;2.67;;;6.40;99.90;;;;;;5092587;28;20193;-85
2023/03/04 00:40:44;;;;;;;0.20;0.20;;;6.40;99.90;;;;;;5073800;28;20224;-84
2023/03/04 00:43:10;;;;;;;0.27;0.27;;;6.40;99.90;;;;;;5074010;28;20307;-85
2023/03/04 00:45:35;;;;;;;0.20;0.20;;;6.50;99.90;;;;;;5074186;28;20303;-86
2023/03/04 00:48:01;;;;;;;0.27;0.27;;;6.40;99.90;;;;;;5091825;28;20212;-85
2023/03/04 00:50:27;;;;;;;0.30;0.30;;;6.40;99.90;;;;;;5091083;28;20177;-86
2023/03/04 00:52:53;;;;;;;0.20;0.20;;;6.40;99.90;;;;;;5091739;28;20224;-85
2023/03/04 00:55:18;;;;;;;0.20;0.20;;;6.40;99.90;;;;;;5056915;28;20224;-85
2023/03/04 00:57:44;;;;;;;0.40;0.40;;;6.40;99.90;;;;;;5091718;28;20240;-85
2023/03/04 01:00:11;;;;;;;0.63;0.60;;;6.40;99.90;;;;;;5091407;28;20789;-85
2023/03/04 01:02:37;;;;;;;0.40;0.40;;;6.50;99.90;;;;;;5073413;28;20271;-85
2023/03/04 01:05:03;;;;;;;0.27;0.27;;;6.50;99.90;;;;;;5057448;28;20264;-85
2023/03/04 01:07:29;;;;;;;7.63;0.57;;;6.50;99.90;;;;;;5107235;28;20307;-86
2023/03/04 01:09:54;;;;;;;0.10;0.10;;;6.40;99.90;;;;;;5073552;28;20692;-85
2023/03/04 01:12:20;;;;;;;0.60;0.60;;;6.40;99.90;;;;;;5090218;28;20220;-86
2023/03/04 01:14:46;;;;;;;0.20;0.20;;;6.40;99.90;;;;;;5056889;28;20645;-86
2023/03/04 01:17:11;;;;;;;4.03;0.80;;;6.40;99.90;;;;;;5073238;28;20230;-85
2023/03/04 01:19:37;;;;;;;0.83;0.83;;;6.30;99.90;;;;;;5091488;28;20578;-86
2023/03/04 01:22:03;;;;;;;0.77;0.77;;;6.30;99.90;;;;;;5073517;28;20248;-85
2023/03/04 01:24:29;;;;;;;0.27;0.27;;;6.30;99.90;;;;;;5091138;28;20822;-85
2023/03/04 01:26:55;;;;;;;1.23;1.17;;;6.30;99.90;;;;;;5091387;28;20188;-85
2023/03/04 01:29:21;;;;;;;0.40;0.40;;;6.30;99.90;;;;;;5092074;28;20622;-86
2023/03/04 01:31:47;;;;;;;1.03;0.77;;;6.30;99.90;;;;;;5091311;28;20869;-86
2023/03/04 01:34:12;;;;;;;0.37;0.37;;;6.40;99.90;;;;;;5073502;28;20220;-85
2023/03/04 01:36:38;;;;;;;34.97;1.63;;;6.40;99.90;;;;;;5073178;28;20711;-86
2023/03/04 01:39:04;;;;;;;0.20;0.20;;;6.40;99.90;;;;;;5056805;28;20235;-86
2023/03/04 01:41:31;;;;;;;1.50;1.30;;;6.40;99.90;;;;;;5073398;28;20200;-85
2023/03/04 01:44:01;;;;;;;0.30;0.30;;;6.40;99.90;;;;;;5072796;28;20270;-86
2023/03/04 01:46:27;;;;;;;0.27;0.27;;;6.40;99.90;;;;;;5073218;28;20248;-86
2023/03/04 01:48:53;;;;;;;0.20;0.20;;;6.40;99.90;;;;;;5072949;28;20216;-85
2023/03/04 01:51:20;;;;;;;0.20;0.20;;;6.40;99.90;;;;;;5073298;28;20223;-85
2023/03/04 01:53:49;;;;;;;0.20;0.20;;;6.40;99.90;;;;;;5056218;28;20184;-86
2023/03/04 01:56:21;;;;;;;2.23;0.77;;;6.30;99.90;;;;;;5073418;28;20177;-86
2023/03/04 01:59:10;;;;;;;0.20;0.20;;;6.30;99.90;;;;;;5073043;28;20228;-86
2023/03/04 02:01:37;;;;;;;3.40;1.17;;;6.30;99.90;;;;;;5090362;28;20446;-86
2023/03/04 02:04:03;;;;;;;0.27;0.27;;;6.30;99.90;;;;;;5056449;28;20794;-85
2023/03/04 02:06:29;;;;;;;0.23;0.23;;;6.30;99.90;;;;;;5087133;28;20223;-86
2023/03/04 02:08:55;;;;;;;0.20;0.20;;;6.30;99.90;;;;;;5099380;28;20662;-86
2023/03/04 02:11:21;;;;;;;0.63;0.63;;;6.30;99.90;;;;;;5056617;28;20184;-85
2023/03/04 02:13:47;;;;;;;0.20;0.20;;;6.30;99.90;;;;;;5072014;28;20217;-84
2023/03/04 02:16:12;;;;;;;0.93;0.83;;;6.30;99.90;;;;;;5055452;28;20232;-85
2023/03/04 02:18:38;;;;;;;3.53;0.63;;;6.30;99.90;;;;;;5072243;28;20677;-85
2023/03/04 02:21:13;;;;;;;2.13;0.33;;;6.30;99.90;;;;;;5090053;28;20236;-86
2023/03/04 02:23:53;;;;;;;0.20;0.20;;;6.40;99.90;;;;;;5072155;28;20173;-85
2023/03/04 02:26:30;;;;;;;0.20;0.20;;;6.40;99.90;;;;;;5072976;28;20169;-85
2023/03/04 02:28:58;;;;;;;0.43;0.43;;;6.40;99.90;;;;;;5071464;28;20212;-85
2023/03/04 02:31:36;;;;;;;0.50;0.50;;;6.40;99.90;;;;;;5090118;28;20764;-85
2023/03/04 02:34:06;;;;;;;0.20;0.20;;;6.40;99.90;;;;;;5071976;28;20216;-85
2023/03/04 02:36:35;;;;;;;0.20;0.20;;;6.40;99.90;;;;;;5089221;28;20216;-84
2023/03/04 02:39:10;;;;;;;0.83;0.73;;;6.50;99.90;;;;;;5071552;28;20218;-84
2023/03/04 02:41:35;;;;;;;0.20;0.20;;;6.40;99.90;;;;;;5072096;28;20646;-85
2023/03/04 02:44:02;;;;;;;0.20;0.20;;;6.50;99.90;;;;;;5072382;28;20298;-84
2023/03/04 02:46:27;;;;;;;0.37;0.37;;;6.50;99.90;;;;;;5089506;28;20240;-84
2023/03/04 02:48:53;;;;;;;0.20;0.20;;;6.50;99.90;;;;;;5055578;28;20236;-85
2023/03/04 02:51:19;;;;;;;1.00;0.63;;;6.50;99.90;;;;;;5105641;28;20223;-85
2023/03/04 02:53:45;;;;;;;0.20;0.20;;;6.50;99.90;;;;;;5072216;28;20184;-85
2023/03/04 02:56:10;;;;;;;5.03;1.47;;;6.50;99.90;;;;;;5055370;28;20625;-85
2023/03/04 02:58:37;;;;;;;0.30;0.30;;;6.60;99.90;;;;;;5071776;28;20216;-86
2023/03/04 03:01:04;;;;;;;0.20;0.20;;;6.50;99.90;;;;;;5071654;28;20790;-84
2023/03/04 03:03:30;;;;;;;2.97;2.20;;;6.60;99.90;;;;;;5071797;28;20225;-84
2023/03/04 03:05:56;;;;;;;0.20;0.20;;;6.50;99.90;;;;;;5071472;28;21944;-84
2023/03/04 03:08:23;;;;;;;0.30;0.30;;;6.50;99.90;;;;;;5072213;28;20187;-85
2023/03/04 03:10:48;;;;;;;0.20;0.20;;;6.50;99.90;;;;;;5071753;28;20220;-85
2023/03/04 03:13:14;;;;;;;0.40;0.40;;;6.50;99.90;;;;;;5055046;28;20227;-85
2023/03/04 03:15:41;;;;;;;0.30;0.30;;;6.50;99.90;;;;;;5071533;28;20269;-85
2023/03/04 03:18:09;;;;;;;0.20;0.20;;;6.50;99.90;;;;;;5071751;28;20213;-86
2023/03/04 03:20:36;;;;;;;0.97;0.30;;;6.50;99.90;;;;;;5071609;28;20228;-86
2023/03/04 03:23:01;;;;;;;1.13;1.13;;;6.50;99.90;;;;;;5089800;28;20213;-85
2023/03/04 03:25:27;;;;;;;0.20;0.20;;;6.50;99.90;;;;;;5089617;28;20605;-86
2023/03/04 03:27:53;;;;;;;0.17;0.17;;;6.50;99.90;;;;;;5089450;28;20583;-85
2023/03/04 03:30:19;;;;;;;0.20;0.20;;;6.60;99.90;;;;;;5071437;28;20332;-84
2023/03/04 03:32:45;;;;;;;0.20;0.20;;;6.60;99.90;;;;;;5071260;28;20269;-85
2023/03/04 03:35:11;;;;;;;2.13;1.43;;;6.60;99.90;;;;;;5072132;28;20233;-85
2023/03/04 03:37:37;;;;;;;0.20;0.20;;;6.60;99.90;;;;;;5089143;28;20220;-85
2023/03/04 03:40:03;;;;;;;0.27;0.27;;;6.60;99.90;;;;;;5073422;28;20219;-85
2023/03/04 03:42:29;;;;;;;0.20;0.20;;;6.60;99.90;;;;;;5075460;28;20224;-86
2023/03/04 03:44:55;;;;;;;0.10;0.10;;;6.60;99.90;;;;;;5058662;28;20241;-85
2023/03/04 03:47:21;;;;;;;2.73;0.87;;;6.60;99.90;;;;;;5076023;28;20192;-86
2023/03/04 03:49:47;;;;;;;0.20;0.20;;;6.70;99.90;;;;;;5075407;28;20238;-86
2023/03/04 03:52:12;;;;;;;0.20;0.20;;;6.70;99.90;;;;;;5058511;28;20577;-86
2023/03/04 03:54:38;;;;;;;0.20;0.20;;;6.70;99.90;;;;;;5075164;28;20217;-85
2023/03/04 03:57:04;;;;;;;0.20;0.20;;;6.70;99.90;;;;;;5058529;28;20684;-85
2023/03/04 03:59:30;;;;;;;0.20;0.20;;;6.80;99.90;;;;;;5059195;28;20191;-85
2023/03/04 04:01:56;;;;;;;0.10;0.10;;;6.70;99.90;;;;;;5075281;28;20270;-85
2023/03/04 04:04:21;;;;;;;0.30;0.30;;;6.70;99.90;;;;;;5075014;28;20691;-85
2023/03/04 04:06:47;;;;;;;0.20;0.20;;;6.70;99.90;;;;;;5074750;28;20220;-86
2023/03/04 04:09:13;;;;;;;0.10;0.10;;;6.70;99.90;;;;;;5058197;28;20209;-86
2023/03/04 04:11:39;;;;;;;0.30;0.30;;;6.70;99.90;;;;;;5074902;28;20275;-86
2023/03/04 04:14:04;;;;;;;0.10;0.10;;;6.80;99.90;;;;;;5075153;28;20519;-86
2023/03/04 04:16:30;;;;;;;0.40;0.40;;;6.70;99.90;;;;;;5058325;28;20217;-87
2023/03/04 04:18:56;;;;;;;0.20;0.20;;;6.70;99.90;;;;;;5074941;28;20589;-86
2023/03/04 04:21:22;;;;;;;0.53;0.53;;;6.70;99.90;;;;;;5074382;28;20311;-86
2023/03/04 04:23:48;;;;;;;0.20;0.20;;;6.60;99.90;;;;;;5074518;28;20652;-85
2023/03/04 04:26:13;;;;;;;0.67;0.67;;;6.70;99.90;;;;;;5074765;28;20184;-86
2023/03/04 04:28:39;;;;;;;0.23;0.23;;;6.70;99.90;;;;;;5074307;28;20219;-85
2023/03/04 04:31:08;;;;;;;0.20;0.20;;;6.60;99.90;;;;;;5092176;28;20299;-85
2023/03/04 04:33:35;;;;;;;1.37;1.30;;;6.50;99.90;;;;;;5092201;28;20251;-87
2023/03/04 04:36:02;;;;;;;0.23;0.23;;;6.40;99.90;;;;;;5092179;28;20217;-85
2023/03/04 04:38:28;;;;;;;0.20;0.20;;;6.30;99.90;;;;;;5075164;28;20264;-86
2023/03/04 04:40:57;;;;;;;0.10;0.10;;;6.20;99.90;;;;;;5074044;28;20307;-86
2023/03/04 04:43:23;;;;;;;0.20;0.20;;;6.20;99.90;;;;;;5074294;28;20678;-85
2023/03/04 04:45:49;;;;;;;0.20;0.20;;;6.20;99.90;;;;;;5074166;28;20577;-86
2023/03/04 04:48:15;;;;;;;2.20;1.23;;;6.20;99.90;;;;;;5073907;28;20307;-87
2023/03/04 04:50:40;;;;;;;0.20;0.20;;;6.10;99.90;;;;;;5090932;28;20185;-87
2023/03/04 04:53:06;;;;;;;0.20;0.20;;;6.10;99.90;;;;;;5072712;28;20188;-86
2023/03/04 04:55:33;;;;;;;0.50;0.50;;;6.10;99.90;;;;;;5090298;28;20220;-86
2023/03/04 04:57:59;;;;;;;0.20;0.20;;;6.10;99.90;;;;;;5089783;28;20219;-87
2023/03/04 05:00:24;;;;;;;0.20;0.20;;;6.10;99.90;;;;;;5072274;28;20232;-87
2023/03/04 05:02:50;;;;;;;0.10;0.10;;;6.20;99.90;;;;;;5055367;28;20621;-86
2023/03/04 05:05:16;;;;;;;0.20;0.20;;;6.20;99.90;;;;;;5056453;28;20195;-86
2023/03/04 05:07:42;;;;;;;1.37;1.23;;;6.20;99.90;;;;;;5055280;28;20220;-86
2023/03/04 05:10:09;;;;;;;0.20;0.20;;;6.30;99.90;;;;;;5073469;28;20212;-86
2023/03/04 05:12:35;;;;;;;0.33;0.33;;;6.30;99.90;;;;;;5091238;28;20220;-86
2023/03/04 05:15:00;;;;;;;0.20;0.20;;;6.20;99.90;;;;;;5073548;28;20547;-85
2023/03/04 05:17:26;;;;;;;0.20;0.20;;;6.20;99.90;;;;;;5090697;28;20234;-85
2023/03/04 05:19:52;;;;;;;0.20;0.20;;;6.10;99.90;;;;;;5056859;28;20235;-85
2023/03/04 05:22:18;;;;;;;0.23;0.23;;;6.10;99.90;;;;;;5072821;28;20298;-87
2023/03/04 05:24:43;;;;;;;0.30;0.30;;;6.20;99.90;;;;;;5072106;28;20224;-86
2023/03/04 05:27:09;;;;;;;0.30;0.30;;;6.20;99.90;;;;;;5071551;28;20215;-86
2023/03/04 05:29:35;;;;;;;0.20;0.20;;;6.10;99.90;;;;;;5072290;28;20181;-87
2023/03/04 05:32:00;;;;;;;0.20;0.20;;;6.10;99.90;;;;;;5054879;28;20246;-86
2023/03/04 05:34:26;;;;;;;0.20;0.20;;;6.20;99.90;;;;;;5071382;28;20670;-85
2023/03/04 05:36:55;;;;;;;0.20;0.20;;;6.30;99.90;;;;;;5055043;28;20269;-86
2023/03/04 05:39:21;;;;;;;0.20;0.20;;;6.30;99.90;;;;;;5071503;28;20224;-86
2023/03/04 05:41:46;;;;;;;0.20;0.20;;;6.40;99.90;;;;;;5071572;28;20775;-86
2023/03/04 05:44:12;;;;;;;0.40;0.40;;;6.40;99.90;;;;;;5056910;28;20181;-85
2023/03/04 05:46:38;;;;;;;0.20;0.20;;;6.40;99.90;;;;;;5072701;28;20220;-85
2023/03/04 05:49:04;;;;;;;0.20;0.20;;;6.40;99.90;;;;;;5091039;28;20224;-87
2023/03/04 05:51:29;;;;;;;0.23;0.23;;;6.30;99.90;;;;;;5055725;28;20228;-86
2023/03/04 05:53:55;;;;;;;0.30;0.30;;;6.20;99.90;;;;;;5071357;28;20181;-86
2023/03/04 05:56:21;;;;;;;0.20;0.20;;;6.20;99.90;;;;;;5055592;28;20181;-86
2023/03/04 05:58:47;;;;;;;0.20;0.20;;;6.10;99.90;;;;;;5089217;28;20759;-86
2023/03/04 06:01:14;;;;;;;0.20;0.20;;;6.10;99.90;;;;;;5071215;28;20613;-87
2023/03/04 06:03:42;;;;;;;0.20;0.20;;;6.00;99.90;;;;;;5071344;28;20266;-86
2023/03/04 06:06:08;;;;;;;0.20;0.20;;;6.00;99.90;;;;;;5056362;28;20208;-86
2023/03/04 06:08:34;;;;;;;0.27;0.27;;;6.10;99.90;;;;;;5073401;28;20185;-86
2023/03/04 06:11:00;;;;;;;0.17;0.17;;;6.10;99.90;;;;;;5072715;28;20474;-85
2023/03/04 06:13:27;;;;;;;0.20;0.20;;;6.10;99.90;;;;;;5090709;28;20277;-85
2023/03/04 06:15:54;;;;;;;0.20;0.20;;;6.20;99.90;;;;;;5072551;28;20312;-86
2023/03/04 06:18:20;;;;;;;0.20;0.20;;;6.10;99.90;;;;;;5055955;28;20303;-86
2023/03/04 06:20:46;;;;;;;0.20;0.20;;;6.00;99.90;;;;;;5071850;28;20225;-85
2023/03/04 06:23:12;;;;;;;0.30;0.30;;;6.00;99.90;;;;;;5090936;28;20196;-86
2023/03/04 06:25:37;;;;;;;0.20;0.20;;;5.90;99.90;;;;;;5054456;28;20208;-86
2023/03/04 06:28:03;;;;;;;0.80;0.80;;;5.80;99.90;;;;;;5087305;28;20219;-86
2023/03/04 06:30:29;;;;;;;1.40;0.93;;;5.80;99.90;;;;;;5070448;28;20220;-86
2023/03/04 06:32:54;;;;;;;0.20;0.20;;;5.80;99.90;;;;;;5070308;28;20187;-86
2023/03/04 06:35:20;;;;;;;0.40;0.40;;;5.90;99.90;;;;;;5055256;28;20246;-86
2023/03/04 06:37:46;;;;;;;0.20;0.20;;;6.00;99.90;;;;;;5071839;28;20220;-86
2023/03/04 06:40:12;;;;;;;0.30;0.30;;;6.10;99.90;;;;;;5089906;28;20373;-86
2023/03/04 06:42:39;;;;;;;0.20;0.20;;;6.20;99.90;;;;;;5071932;28;20209;-85
2023/03/04 06:45:05;;;;;;;0.20;0.20;;;6.30;99.90;;;;;;5071956;28;20675;-85
2023/03/04 06:47:31;;;;;;;0.20;0.20;;;6.30;99.90;;;;;;5090095;28;20678;-84
2023/03/04 06:49:57;;;;;;;0.20;0.20;;;6.40;99.90;;;;;;5055222;28;20310;-85
2023/03/04 06:52:23;;;;;;;0.20;0.20;;;6.40;99.90;;;;;;5071394;28;20790;-86
2023/03/04 06:54:49;;;;;;;0.20;0.20;;;6.50;99.90;;;;;;5089502;28;20796;-87
2023/03/04 06:57:14;;;;;;;0.30;0.30;;;6.60;99.90;;;;;;5089905;28;20288;-86
2023/03/04 06:59:40;;;;;;;0.30;0.30;;;6.60;99.90;;;;;;5071430;28;20336;-85
2023/03/04 07:02:09;;;;;;;0.10;0.10;;;6.50;99.90;;;;;;5088794;28;20205;-86
2023/03/04 07:04:35;;;;;;;0.20;0.20;;;6.50;99.90;;;;;;5055052;28;20274;-85
2023/03/04 07:07:00;;;;;;;0.17;0.17;;;6.40;99.90;;;;;;5055238;28;20220;-85
2023/03/04 07:09:26;;;;;;;1.20;1.20;;;6.40;99.90;;;;;;5071229;28;20224;-85
2023/03/04 07:11:52;;;;;;;0.10;0.10;;;6.40;99.90;;;;;;5088147;28;20181;-86
2023/03/04 07:14:17;;;;;;;0.20;0.20;;;6.40;99.90;;;;;;5090193;28;20192;-86
2023/03/04 07:16:43;;;;;;;0.87;0.87;;;6.40;99.90;;;;;;5055149;28;20247;-85
2023/03/04 07:19:09;;;;;;;0.20;0.20;;;6.50;99.90;;;;;;5071759;28;20212;-86
2023/03/04 07:21:35;;;;;;;0.77;0.77;;;6.50;99.90;;;;;;5054273;28;20252;-85
2023/03/04 07:24:00;;;;;;;0.43;0.43;;;6.50;99.90;;;;;;5089598;28;20220;-90
2023/03/04 07:26:26;;;;;;;3.00;0.50;;;6.50;99.90;;;;;;5072194;28;20188;-86
2023/03/04 07:28:53;;;;;;;7.93;0.67;;;6.40;99.90;;;;;;5054846;28;20826;-86
2023/03/04 07:31:23;;;;;;;0.10;0.10;;;6.20;99.90;;;;;;5054646;28;20227;-86
2023/03/04 07:33:50;;;;;;;2.57;0.30;;;6.10;99.90;;;;;;5071159;28;20577;-85
2023/03/04 07:36:18;;;;;;;8.03;4.10;;;6.20;99.90;;;;;;5088975;28;20216;-86
2023/03/04 07:38:48;;;;;;;0.20;0.20;;;6.40;99.90;;;;;;5089093;28;20253;-86
2023/03/04 07:41:14;;;;;;;0.20;0.20;;;6.50;99.90;;;;;;5071458;28;20703;-85
2023/03/04 07:43:40;;;;;;;1.80;1.00;;;6.60;99.90;;;;;;5088978;28;20228;-86
2023/03/04 07:46:06;;;;;;;0.20;0.20;;;6.70;99.90;;;;;;5071161;28;20216;-85
2023/03/04 07:48:36;;;;;;;1.30;1.20;;;6.80;99.90;;;;;;5088599;28;20224;-85
2023/03/04 07:51:11;;;;;;;0.30;0.30;;;6.90;99.90;;;;;;5070908;28;20224;-86
2023/03/04 07:53:39;;;;;;;0.90;0.20;;;6.90;99.90;;;;;;5070734;28;20200;-86
2023/03/04 07:56:06;;;;;;;0.30;0.30;;;7.00;99.90;;;;;;5055015;28;20836;-85
2023/03/04 07:58:32;;;;;;;0.40;0.40;;;7.00;99.90;;;;;;5088663;28;20213;-85
2023/03/04 08:00:58;;;;;;;0.30;0.30;;;7.00;99.90;;;;;;5088650;28;20263;-85
2023/03/04 08:03:24;;;;;;;1.07;1.07;;;7.00;99.90;;;;;;5070518;28;20619;-85
2023/03/04 08:05:50;;;;;;;0.20;0.20;;;7.00;99.90;;;;;;5088614;28;20173;-85
2023/03/04 08:08:16;;;;;;;0.20;0.20;;;7.00;99.90;;;;;;5089149;28;20272;-86
2023/03/04 08:10:42;;;;;;;0.20;0.20;;;7.00;99.90;;;;;;5070953;28;20225;-85
2023/03/04 08:13:08;;;;;;;0.30;0.30;;;7.10;99.90;;;;;;5069963;28;20213;-84
2023/03/04 08:15:39;;;;;;;0.30;0.30;;;7.00;99.90;;;;;;5070131;28;20216;-85
2023/03/04 08:18:05;;;;;;;0.20;0.20;;;7.00;99.90;;;;;;5070449;28;20213;-85
2023/03/04 08:20:30;;;;;;;2.63;2.20;;;7.00;99.90;;;;;;5053146;28;20243;-85
2023/03/04 08:22:56;;;;;;;0.43;0.43;;;6.90;99.90;;;;;;5053363;28;20233;-85
2023/03/04 08:25:22;;;;;;;0.30;0.30;;;7.00;99.90;;;;;;5070196;28;20224;-85
2023/03/04 08:27:48;;;;;;;1.50;1.40;;;7.00;99.90;;;;;;5073042;28;20354;-85
2023/03/04 08:30:14;;;;;;;24.03;1.03;;;7.10;99.90;;;;;;5091146;28;20223;-86
2023/03/04 08:32:39;;;;;;;6.90;2.23;;;7.20;99.90;;;;;;5073192;28;20196;-89
2023/03/04 08:35:05;;;;;;;5.40;1.70;;;7.20;99.90;;;;;;5056665;28;20794;-84
2023/03/04 08:37:31;;;;;;;3.73;2.37;;;7.20;99.90;;;;;;5089730;28;20224;-83
2023/03/04 08:39:57;;;;;;;0.30;0.30;;;7.20;99.90;;;;;;5071979;28;20227;-84
2023/03/04 08:42:23;;;;;;;0.73;0.73;;;7.10;99.90;;;;;;5089707;28;20228;-85
2023/03/04 08:44:49;;;;;;;1.43;0.63;;;7.10;99.90;;;;;;5090045;28;20189;-84
2023/03/04 08:47:15;;;;;;;0.37;0.37;;;7.10;99.90;;;;;;5090324;28;20264;-83
2023/03/04 08:49:41;;;;;;;0.20;0.20;;;7.10;99.90;;;;;;5089892;28;20275;-83
2023/03/04 08:52:07;;;;;;;0.10;0.10;;;7.20;99.90;;;;;;5071423;28;20685;-82
2023/03/04 08:54:32;;;;;;;3.43;0.77;;;7.20;99.90;;;;;;5055325;28;20216;-84
2023/03/04 08:56:58;;;;;;;0.40;0.40;;;7.20;99.90;;;;;;5054757;28;20216;-83
2023/03/04 08:59:24;;;;;;;0.20;0.20;;;7.20;99.90;;;;;;5072189;28;20694;-85
2023/03/04 09:01:50;;;;;;;2.37;2.23;;;7.10;99.90;;;;;;5090382;28;20227;-87
2023/03/04 09:04:15;;;;;;;0.20;0.20;;;7.10;99.90;;;;;;5059701;28;20231;-94
2023/03/04 09:06:41;;;;;;;3.80;0.83;;;7.10;99.90;;;;;;5076800;28;20220;-90
2023/03/04 09:09:07;;;;;;;6.13;1.50;;;7.20;99.90;;;;;;5059900;28;20208;-92
2023/03/04 09:11:33;;;;;;;0.50;0.43;;;7.20;99.90;;;;;;5076173;28;20345;-89
2023/03/04 09:13:59;;;;;;;0.97;0.80;;;7.20;99.90;;;;;;5093766;28;20285;-94
2023/03/04 09:16:25;;;;;;;0.40;0.40;;;7.30;99.90;;;;;;5060510;28;20292;-92
2023/03/04 09:18:50;;;;;;;3.90;1.40;;;7.30;99.90;;;;;;5075783;28;20699;-92
2023/03/04 09:21:17;;;;;;;0.67;0.53;;;7.30;99.90;;;;;;5074617;28;20308;-91
2023/03/04 09:23:42;;;;;;;0.27;0.27;;;7.20;99.90;;;;;;5092521;28;20177;-93
2023/03/04 09:26:16;;;;;;;5.30;1.00;;;7.40;99.90;;;;;;5092178;28;20169;-90
2023/03/04 09:28:41;;;;;;;0.40;0.40;;;7.30;99.90;;;;;;5075302;28;20215;-92
2023/03/04 09:31:12;;;;;;;0.73;0.60;;;7.40;99.90;;;;;;5075498;28;20729;-93
2023/03/04 09:33:41;;;;;;;1.43;0.67;;;7.40;99.90;;;;;;5093570;28;20209;-94
2023/03/04 09:36:09;;;;;;;0.43;0.43;;;7.40;99.90;;;;;;5092663;28;20304;-94
2023/03/04 09:38:37;;;;;;;0.80;0.80;;;7.40;99.90;;;;;;5075372;28;20208;-94
2023/03/04 09:41:06;;;;;;;1.23;1.23;;;7.30;99.90;;;;;;5092466;28;20309;-94
2023/03/04 09:43:33;;;;;;;1.73;0.33;;;7.30;99.90;;;;;;5105058;28;20276;-89
2023/03/04 09:46:03;;;;;;;11.13;1.30;;;7.40;99.90;;;;;;5077148;28;20221;-93
2023/03/04 09:48:42;;;;;;;3.70;0.50;;;7.30;99.90;;;;;;5112075;28;20200;-90
2023/03/04 09:51:19;;;;;;;0.40;0.40;;;7.40;99.90;;;;;;5092591;28;20279;-92
2023/03/04 09:54:15;;;;;;;5.30;0.77;;;7.20;99.90;;;;;;5105941;28;20301;-92
2023/03/04 09:56:41;;;;;;;0.73;0.73;;;7.10;99.90;;;;;;5075039;28;20199;-90
2023/03/04 09:59:33;;;;;;;0.30;0.30;;;7.00;99.90;;;;;;5077420;28;20272;-92
2023/03/04 10:02:02;;;;;;;1.40;0.50;;;7.10;99.90;;;;;;5101476;28;20228;-91
2023/03/04 10:04:41;;;;;;;0.43;0.20;;;7.20;99.90;;;;;;5091313;28;20284;-88
2023/03/04 10:07:25;;;;;;;0.20;0.20;;;7.40;99.90;;;;;;5111884;28;20212;-91
2023/03/04 10:10:01;;;;;;;0.10;0.10;;;7.60;99.90;;;;;;5093037;28;20216;-89
2023/03/04 10:12:30;;;;;;;0.93;0.23;;;7.60;99.90;;;;;;5083172;28;20679;-93
2023/03/04 10:15:33;;;;;;;0.10;0.10;;;7.70;99.90;;;;;;5092914;28;20643;-91
2023/03/04 10:18:23;;;;;;;0.20;0.20;;;8.00;99.90;;;;;;5092223;28;20263;-93
2023/03/04 10:20:57;;;;;;;0.30;0.30;;;8.10;99.90;;;;;;5074062;28;20281;-94
2023/03/04 10:23:25;;;;;;;0.13;0.13;;;8.00;99.90;;;;;;5074730;28;20173;-93
2023/03/04 10:25:55;;;;;;;0.40;0.40;;;8.30;99.90;;;;;;5091290;28;20247;-94
2023/03/04 10:28:29;;;;;;;0.20;0.20;;;8.00;99.90;;;;;;5073971;28;20644;-92
2023/03/04 10:31:21;;;;;;;0.63;0.63;;;7.90;99.90;;;;;;5073188;28;20282;-92
2023/03/04 10:33:48;;;;;;;0.20;0.20;;;7.90;99.90;;;;;;5091464;28;20209;-94
2023/03/04 10:36:22;;;;;;;0.30;0.30;;;8.10;99.90;;;;;;5091652;28;20212;-91
2023/03/04 10:38:53;;;;;;;1.70;0.30;;;8.20;99.90;;;;;;5091670;28;20251;-92
2023/03/04 10:41:23;;;;;;;0.67;0.40;;;8.10;99.90;;;;;;5073848;28;20666;-94
2023/03/04 10:44:13;;;;;;;0.10;0.10;;;8.10;99.90;;;;;;5091097;28;20233;-92
2023/03/04 10:46:41;;;;;;;0.20;0.20;;;7.90;99.90;;;;;;5084933;28;20226;-92
2023/03/04 10:49:09;;;;;;;0.20;0.20;;;7.80;99.90;;;;;;5090328;28;20240;-92
2023/03/04 10:52:02;;;;;;;0.20;0.20;;;7.80;99.90;;;;;;5056339;28;20224;-91
2023/03/04 10:54:46;;;;;;;0.53;0.40;;;7.80;99.90;;;;;;5074500;28;20250;-92
2023/03/04 10:57:23;;;;;;;2.10;0.67;;;7.80;99.90;;;;;;5090730;28;20236;-91
2023/03/04 10:59:59;;;;;;;2.23;0.63;;;7.80;99.90;;;;;;5073075;28;20164;-91
2023/03/04 11:02:32;;;;;;;0.30;0.30;;;8.00;99.90;;;;;;5091490;28;20285;-90
2023/03/04 11:05:07;;;;;;;0.23;0.23;;;8.00;99.90;;;;;;5072774;28;20212;-92
2023/03/04 11:07:38;;;;;;;4.70;0.90;;;8.10;99.90;;;;;;5090963;28;20472;-90
2023/03/04 11:10:20;;;;;;;0.23;0.23;;;8.00;99.90;;;;;;5090748;28;20219;-92
2023/03/04 11:12:54;;;;;;;3.17;0.30;;;8.20;99.90;;;;;;5085308;28;20355;-92
2023/03/04 11:15:26;;;;;;;3.53;2.50;;;8.60;99.90;;;;;;5090586;28;20319;-91
2023/03/04 11:18:11;;;;;;;0.50;0.50;;;8.30;99.90;;;;;;5091011;28;20196;-92
2023/03/04 11:20:42;;;;;;;0.37;0.37;;;7.90;99.90;;;;;;5091581;28;20224;-93
2023/03/04 11:23:22;;;;;;;0.37;0.37;;;8.10;99.90;;;;;;5075008;28;20216;-92
2023/03/04 11:25:55;;;;;;;1.07;0.67;;;8.10;99.90;;;;;;5073697;28;20270;-94
2023/03/04 11:28:48;;;;;;;0.40;0.40;;;8.10;99.90;;;;;;5072795;28;20311;-91
2023/03/04 11:31:24;;;;;;;4.50;0.63;;;8.10;99.90;;;;;;5071618;28;20307;-92
2023/03/04 11:34:01;;;;;;;0.10;0.10;;;8.30;99.90;;;;;;5071900;28;20231;-92
2023/03/04 11:36:56;;;;;;;4.70;0.40;;;8.50;99.90;;;;;;5072183;28;20215;-92
2023/03/04 11:39:47;;;;;;;5.37;1.27;;;8.70;99.90;;;;;;5071927;28;20217;-89
2023/03/04 11:42:51;;;;;;;0.30;0.27;;;8.60;99.90;;;;;;5084875;28;20197;-92
2023/03/04 11:46:00;;;;;;;1.13;1.10;;;8.40;99.90;;;;;;5062551;28;20223;-90
2023/03/04 11:48:38;;;;;;;3.10;1.10;;;8.30;99.90;;;;;;5088960;28;20212;-93
2023/03/04 11:51:28;;;;;;;0.90;0.90;;;8.20;99.90;;;;;;5089477;28;20629;-92
2023/03/04 11:54:16;;;;;;;8.00;1.60;;;8.10;99.90;;;;;;5106946;28;20201;-94
2023/03/04 11:56:58;;;;;;;1.23;1.13;;;8.20;99.90;;;;;;5092792;28;20237;-96
2023/03/04 11:59:31;;;;;;;1.13;0.50;;;8.30;99.90;;;;;;5089973;28;20241;-94
2023/03/04 12:02:03;;;;;;;0.20;0.20;;;8.20;99.90;;;;;;5074764;28;20295;-94
2023/03/04 12:04:38;;;;;;;0.10;0.10;;;8.00;99.90;;;;;;5075738;28;20223;-93
2023/03/04 12:07:15;;;;;;;0.10;0.10;;;8.00;99.90;;;;;;5075278;28;20716;-94
2023/03/04 12:10:08;;;;;;;0.87;0.80;;;7.90;99.90;;;;;;5075327;28;20441;-94
2023/03/04 12:12:52;;;;;;;0.73;0.73;;;8.10;99.90;;;;;;5076200;28;20209;-94
2023/03/04 12:15:23;;;;;;;21.97;0.60;;;7.90;99.90;;;;;;5075995;28;20263;-94
2023/03/04 12:18:33;;;;;;;1.37;1.30;;;7.90;99.90;;;;;;5094186;28;20173;-94
2023/03/04 12:21:11;;;;;;;0.30;0.30;;;8.00;99.90;;;;;;5022582;28;20260;-95
2023/03/04 12:24:26;;;;;;;0.20;0.20;;;8.00;99.90;;;;;;5065912;28;20217;-94
2023/03/04 12:27:36;;;;;;;1.07;1.07;;;7.90;99.90;;;;;;5059883;28;20201;-95
2023/03/04 12:30:15;;;;;;;5.00;1.13;;;8.20;99.90;;;;;;5032779;28;20328;-94
2023/03/04 12:33:05;;;;;;;3.97;0.43;;;8.30;99.90;;;;;;5033433;28;20187;-94
2023/03/04 12:35:41;;;;;;;0.50;0.50;;;8.10;99.90;;;;;;5062638;28;20579;-95
2023/03/04 12:38:33;;;;;;;0.60;0.40;;;8.00;99.90;;;;;;5086696;28;20220;-94
2023/03/04 12:40:58;;;;;;;0.97;0.97;;;8.60;99.90;;;;;;5084639;28;20278;-94
2023/03/04 12:43:35;;;;;;;0.53;0.50;;;8.60;99.90;;;;;;5106271;28;20288;-95
2023/03/04 12:46:03;;;;;;;1.80;0.47;;;8.30;99.90;;;;;;5074858;28;20216;-95
2023/03/04 12:48:45;;;;;;;1.00;0.53;;;8.20;99.90;;;;;;5075335;28;20284;-95
2023/03/04 12:51:30;;;;;;;1.67;0.40;;;8.00;99.90;;;;;;5075034;28;20258;-95
2023/03/04 12:54:08;;;;;;;0.57;0.57;;;8.40;99.90;;;;;;5075030;28;20298;-95
2023/03/04 12:56:47;;;;;;;7.53;1.33;;;8.40;99.90;;;;;;5074137;28;20292;-94
2023/03/04 12:59:17;;;;;;;0.10;0.10;;;8.20;99.90;;;;;;5107151;28;20225;-93
2023/03/04 13:02:12;;;;;;;0.50;0.50;;;8.20;99.90;;;;;;5073095;28;20231;-94
2023/03/04 13:04:53;;;;;;;1.80;1.03;;;7.90;99.90;;;;;;5066533;28;20220;-93
2023/03/04 13:07:56;;;;;;;0.20;0.20;;;7.60;99.90;;;;;;5094205;28;20270;-94
2023/03/04 13:10:24;;;;;;;0.33;0.33;;;7.30;99.90;;;;;;5077204;28;20274;-93
2023/03/04 13:12:53;;;;;;;0.20;0.20;;;7.50;99.90;;;;;;5077121;28;20672;-94